createdAt,value
2022-11-04T00:00:44.881Z,16.80
2022-11-04T00:03:14.093Z,15.30
2022-11-04T00:05:42.805Z,16.53
2022-11-04T00:08:24.893Z,17.20
2022-11-04T00:11:13.466Z,16.00
2022-11-04T00:13:42.348Z,15.23
2022-11-04T00:16:28.122Z,14.83
2022-11-04T00:18:57.057Z,14.83
2022-11-04T00:21:57.621Z,15.57
2022-11-04T00:24:45.265Z,13.73
2022-11-04T00:27:34.341Z,15.30
2022-11-04T00:30:03.441Z,14.73
2022-11-04T00:32:51.448Z,14.73
2022-11-04T00:35:20.768Z,13.97
2022-11-04T00:37:49.389Z,13.97
2022-11-04T00:40:19.677Z,14.90
2022-11-04T00:42:48.283Z,15.50
2022-11-04T00:45:17.092Z,13.87
2022-11-04T00:47:45.764Z,14.67
2022-11-04T00:50:14.363Z,14.57
2022-11-04T00:52:43.083Z,15.40
2022-11-04T00:55:12.120Z,14.67
2022-11-04T00:57:42.171Z,14.17
2022-11-04T01:00:12.897Z,13.93
2022-11-04T01:02:41.868Z,13.97
2022-11-04T01:05:11.248Z,13.50
2022-11-04T01:07:43.649Z,14.47
2022-11-04T01:10:13.143Z,14.03
2022-11-04T01:12:43.490Z,13.30
2022-11-04T01:15:12.557Z,13.40
2022-11-04T01:17:41.385Z,12.97
2022-11-04T01:20:11.713Z,13.87
2022-11-04T01:22:40.485Z,13.70
2022-11-04T01:25:11.730Z,14.90
2022-11-04T01:27:40.505Z,14.00
2022-11-04T01:30:13.712Z,13.80
2022-11-04T01:32:42.472Z,13.60
2022-11-04T01:35:11.724Z,12.93
2022-11-04T01:37:40.643Z,13.97
2022-11-04T01:40:11.166Z,14.23
2022-11-04T01:42:39.904Z,14.53
2022-11-04T01:45:17.629Z,13.43
2022-11-04T01:47:54.304Z,13.40
2022-11-04T01:50:28.191Z,12.83
2022-11-04T01:53:04.659Z,13.90
2022-11-04T01:55:37.426Z,13.77
2022-11-04T01:58:12.133Z,13.37
2022-11-04T02:00:44.542Z,13.10
2022-11-04T02:03:19.533Z,13.77
2022-11-04T02:05:50.001Z,13.73
2022-11-04T02:08:20.618Z,12.80
2022-11-04T02:10:59.306Z,13.67
2022-11-04T02:13:28.635Z,13.23
2022-11-04T02:16:12.831Z,13.03
2022-11-04T02:19:00.582Z,13.70
2022-11-04T02:21:59.164Z,13.77
2022-11-04T02:25:22.770Z,12.77
2022-11-04T02:28:29.933Z,13.57
2022-11-04T02:31:14.024Z,13.03
2022-11-04T02:33:52.250Z,12.57
2022-11-04T02:36:34.114Z,13.20
2022-11-04T02:39:13.908Z,13.13
2022-11-04T02:41:57.703Z,12.80
2022-11-04T02:44:35.247Z,13.23
2022-11-04T02:47:12.323Z,12.63
2022-11-04T02:49:50.781Z,11.97
2022-11-04T02:52:27.233Z,13.83
2022-11-04T02:55:04.938Z,14.47
2022-11-04T02:57:40.440Z,14.43
2022-11-04T03:00:21.685Z,16.80
2022-11-04T03:02:57.742Z,15.83
2022-11-04T03:05:34.346Z,16.10
2022-11-04T03:08:10.535Z,16.60
2022-11-04T03:10:46.693Z,16.40
2022-11-04T03:13:22.283Z,16.70
2022-11-04T03:15:56.905Z,16.77
2022-11-04T03:18:39.615Z,17.77
2022-11-04T03:21:14.306Z,17.10
2022-11-04T03:23:44.022Z,16.23
2022-11-04T03:26:22.257Z,16.73
2022-11-04T03:29:05.938Z,17.47
2022-11-04T03:31:46.250Z,17.30
2022-11-04T03:34:16.564Z,16.97
2022-11-04T03:36:45.423Z,18.60
2022-11-04T03:39:14.225Z,17.90
2022-11-04T03:41:50.566Z,19.10
2022-11-04T03:44:19.666Z,18.43
2022-11-04T03:46:48.787Z,18.33
2022-11-04T03:49:20.378Z,18.40
2022-11-04T03:51:48.995Z,19.10
2022-11-04T03:54:19.273Z,18.27
2022-11-04T03:57:25.407Z,18.23
2022-11-04T04:00:10.515Z,18.10
2022-11-04T04:03:08.372Z,18.20
2022-11-04T04:05:45.154Z,19.83
2022-11-04T04:08:31.668Z,19.13
2022-11-04T04:11:12.997Z,19.57
2022-11-04T04:13:51.717Z,19.60
2022-11-04T04:16:29.265Z,19.87
2022-11-04T04:19:05.674Z,20.47
2022-11-04T04:21:44.254Z,21.00
2022-11-04T04:24:36.603Z,19.87
2022-11-04T04:27:23.055Z,19.07
2022-11-04T04:29:54.527Z,19.30
2022-11-04T04:32:27.028Z,20.53
2022-11-04T04:35:16.704Z,20.87
2022-11-04T04:37:48.652Z,20.33
2022-11-04T04:40:42.224Z,20.53
2022-11-04T04:43:34.609Z,20.20
2022-11-04T04:46:04.677Z,19.43
2022-11-04T04:48:33.364Z,21.43
2022-11-04T04:51:02.626Z,21.10
2022-11-04T04:53:32.710Z,21.77
2022-11-04T04:56:01.341Z,22.03
2022-11-04T04:58:30.080Z,21.90
2022-11-04T05:00:59.826Z,20.73
2022-11-04T05:03:28.523Z,22.73
2022-11-04T05:06:00.374Z,23.03
2022-11-04T05:08:28.981Z,22.57
2022-11-04T05:11:00.593Z,22.43
2022-11-04T05:13:30.792Z,25.27
2022-11-04T05:16:06.746Z,23.03
2022-11-04T05:18:38.941Z,23.13
2022-11-04T05:21:11.977Z,24.23
2022-11-04T05:23:40.935Z,23.77
2022-11-04T05:26:15.906Z,24.13
2022-11-04T05:28:45.543Z,26.43
2022-11-04T05:31:22.451Z,28.00
2022-11-04T05:33:51.317Z,28.10
2022-11-04T05:36:20.088Z,25.53
2022-11-04T05:38:52.898Z,28.53
2022-11-04T05:41:26.818Z,27.47
2022-11-04T05:43:57.235Z,27.30
2022-11-04T05:46:27.180Z,33.17
2022-11-04T05:48:56.206Z,29.50
2022-11-04T05:51:29.715Z,30.17
2022-11-04T05:53:58.340Z,28.43
2022-11-04T05:56:28.443Z,28.00
2022-11-04T05:58:57.157Z,28.43
2022-11-04T06:01:31.133Z,29.67
2022-11-04T06:04:01.867Z,27.97
2022-11-04T06:06:34.425Z,28.13
2022-11-04T06:09:04.633Z,26.53
2022-11-04T06:11:36.299Z,27.20
2022-11-04T06:14:05.423Z,26.87
2022-11-04T06:16:34.133Z,25.97
2022-11-04T06:19:06.111Z,24.27
2022-11-04T06:21:38.244Z,25.37
2022-11-04T06:24:07.273Z,23.80
2022-11-04T06:26:37.244Z,25.07
2022-11-04T06:29:05.837Z,23.63
2022-11-04T06:31:34.458Z,22.00
2022-11-04T06:34:03.218Z,21.27
2022-11-04T06:36:31.880Z,21.37
2022-11-04T06:39:04.591Z,19.47
2022-11-04T06:41:34.002Z,20.40
2022-11-04T06:44:04.191Z,19.70
2022-11-04T06:46:38.828Z,20.00
2022-11-04T06:49:12.812Z,19.63
2022-11-04T06:51:41.628Z,19.73
2022-11-04T06:54:10.265Z,17.50
2022-11-04T06:56:38.979Z,17.90
2022-11-04T06:59:09.494Z,18.70
2022-11-04T07:01:38.627Z,17.80
2022-11-04T07:04:07.495Z,15.13
2022-11-04T07:06:38.452Z,16.03
2022-11-04T07:09:12.184Z,16.23
2022-11-04T07:11:42.699Z,16.63
2022-11-04T07:14:14.028Z,15.33
2022-11-04T07:16:42.724Z,16.17
2022-11-04T07:19:11.327Z,15.60
2022-11-04T07:21:39.981Z,16.77
2022-11-04T07:24:09.115Z,16.40
2022-11-04T07:26:37.731Z,15.73
2022-11-04T07:29:06.893Z,15.77
2022-11-04T07:31:36.869Z,15.77
2022-11-04T07:34:06.107Z,17.17
2022-11-04T07:36:34.824Z,17.80
2022-11-04T07:39:03.534Z,15.40
2022-11-04T07:41:32.057Z,16.73
2022-11-04T07:44:01.089Z,16.60
2022-11-04T07:46:29.743Z,15.03
2022-11-04T07:49:00.611Z,15.60
2022-11-04T07:51:30.341Z,15.27
2022-11-04T07:53:59.275Z,15.00
2022-11-04T07:56:28.392Z,15.00
2022-11-04T07:58:56.999Z,17.60
2022-11-04T08:01:26.255Z,21.23
2022-11-04T08:03:55.038Z,26.73
2022-11-04T08:06:25.052Z,25.93
2022-11-04T08:08:54.269Z,20.90
2022-11-04T08:11:28.424Z,25.03
2022-11-04T08:13:57.698Z,29.30
2022-11-04T08:16:33.085Z,33.43
2022-11-04T08:19:03.015Z,30.27
2022-11-04T08:21:35.744Z,24.30
2022-11-04T08:24:06.090Z,24.30
2022-11-04T08:26:35.276Z,25.80
2022-11-04T08:29:08.490Z,24.10
2022-11-04T08:31:37.490Z,21.17
2022-11-04T08:34:08.553Z,17.47
2022-11-04T08:36:41.753Z,16.20
2022-11-04T08:39:11.663Z,14.93
2022-11-04T08:41:43.231Z,13.60
2022-11-04T08:44:14.272Z,12.37
2022-11-04T08:46:45.802Z,12.40
2022-11-04T08:49:20.753Z,12.60
2022-11-04T08:51:56.761Z,12.37
2022-11-04T08:54:26.065Z,13.20
2022-11-04T08:56:55.365Z,11.30
2022-11-04T08:59:25.204Z,9.27
2022-11-04T09:01:54.281Z,8.50
2022-11-04T09:04:23.290Z,8.93
2022-11-04T09:06:56.277Z,9.73
2022-11-04T09:09:25.079Z,10.83
2022-11-04T09:11:54.026Z,9.33
2022-11-04T09:14:23.891Z,12.03
2022-11-04T09:16:54.142Z,13.27
2022-11-04T09:19:22.706Z,12.13
2022-11-04T09:21:52.755Z,9.77
2022-11-04T09:24:21.409Z,10.80
2022-11-04T09:26:50.057Z,9.70
2022-11-04T09:29:18.779Z,9.23
2022-11-04T09:31:47.355Z,8.77
2022-11-04T09:34:15.995Z,7.57
2022-11-04T09:36:44.985Z,7.87
2022-11-04T09:39:15.007Z,8.13
2022-11-04T09:42:18.626Z,8.07
2022-11-04T09:45:24.128Z,9.00
2022-11-04T09:47:48.375Z,7.80
2022-11-04T09:50:25.855Z,8.27
2022-11-04T09:53:02.789Z,8.23
2022-11-04T09:55:41.845Z,7.57
2022-11-04T09:58:15.157Z,8.03
2022-11-04T10:00:57.532Z,7.20
2022-11-04T10:03:52.454Z,7.53
2022-11-04T10:06:41.623Z,8.97
2022-11-04T10:09:31.417Z,6.40
2022-11-04T10:12:23.077Z,7.00
2022-11-04T10:15:18.615Z,5.57
2022-11-04T10:18:06.138Z,6.20
2022-11-04T10:20:50.554Z,5.40
2022-11-04T10:23:24.636Z,5.70
2022-11-04T10:26:04.727Z,5.53
2022-11-04T10:28:42.217Z,6.07
2022-11-04T10:31:17.058Z,6.23
2022-11-04T10:33:51.889Z,6.20
2022-11-04T10:36:22.361Z,7.97
2022-11-04T10:38:55.715Z,7.37
2022-11-04T10:41:33.867Z,5.90
2022-11-04T10:44:09.312Z,7.20
2022-11-04T10:46:56.786Z,5.93
2022-11-04T10:50:27.113Z,6.00
2022-11-04T10:52:49.769Z,5.30
2022-11-04T10:55:37.448Z,6.83
2022-11-04T10:58:17.659Z,5.30
2022-11-04T11:00:47.817Z,5.00
2022-11-04T11:03:33.331Z,5.43
2022-11-04T11:06:28.999Z,5.97
2022-11-04T11:09:13.021Z,6.10
2022-11-04T11:11:48.928Z,4.87
2022-11-04T11:14:34.645Z,5.90
2022-11-04T11:17:26.462Z,4.13
2022-11-04T11:20:02.995Z,4.10
2022-11-04T11:22:43.853Z,3.80
2022-11-04T11:25:31.415Z,4.13
2022-11-04T11:28:03.054Z,4.70
2022-11-04T11:30:35.231Z,4.60
2022-11-04T11:33:17.087Z,4.70
2022-11-04T11:35:55.377Z,4.30
2022-11-04T11:38:27.692Z,4.47
2022-11-04T11:41:25.541Z,5.03
2022-11-04T11:43:58.014Z,4.50
2022-11-04T11:46:30.700Z,4.43
2022-11-04T11:49:04.276Z,4.50
2022-11-04T11:51:36.338Z,4.17
2022-11-04T11:54:22.931Z,4.73
2022-11-04T11:57:13.209Z,5.20
2022-11-04T12:02:53.353Z,4.67
2022-11-04T12:12:00.924Z,4.50
2022-11-04T12:14:49.157Z,5.47
2022-11-04T12:17:36.902Z,5.03
2022-11-04T12:20:43.578Z,4.70
2022-11-04T12:23:22.130Z,4.53
2022-11-04T12:26:13.121Z,5.23
2022-11-04T12:29:04.706Z,4.70
2022-11-04T12:31:46.940Z,5.57
2022-11-04T12:34:41.481Z,5.57
2022-11-04T12:37:26.591Z,5.00
2022-11-04T12:40:12.946Z,5.23
2022-11-04T12:43:10.656Z,4.90
2022-11-04T12:45:58.165Z,5.20
2022-11-04T12:48:58.427Z,5.40
2022-11-04T12:51:42.807Z,5.83
2022-11-04T12:54:46.634Z,6.97
2022-11-04T12:57:30.455Z,11.90
2022-11-04T13:00:12.513Z,8.87
2022-11-04T13:02:50.362Z,16.37
2022-11-04T13:05:45.606Z,12.13
2022-11-04T13:08:26.952Z,12.63
2022-11-04T13:11:04.608Z,12.43
2022-11-04T13:13:40.389Z,6.50
2022-11-04T13:16:13.996Z,5.10
2022-11-04T13:18:45.808Z,4.20
2022-11-04T13:21:23.106Z,4.67
2022-11-04T13:23:58.422Z,4.30
2022-11-04T13:26:28.551Z,4.40
2022-11-04T13:29:08.992Z,5.00
2022-11-04T13:31:51.725Z,5.00
2022-11-04T13:34:36.362Z,4.33
2022-11-04T13:37:21.779Z,4.10
2022-11-04T13:39:56.544Z,4.30
2022-11-04T13:43:19.593Z,4.83
2022-11-04T13:45:52.958Z,4.23
2022-11-04T13:48:27.217Z,4.37
2022-11-04T13:51:03.922Z,5.03
2022-11-04T13:53:46.673Z,5.10
2022-11-04T13:56:35.561Z,4.63
2022-11-04T13:59:23.983Z,5.40
2022-11-04T14:02:38.794Z,4.93
2022-11-04T14:06:12.943Z,5.23
2022-11-04T14:09:34.365Z,6.00
2022-11-04T14:12:34.316Z,4.70
2022-11-04T14:15:18.268Z,4.60
2022-11-04T14:18:12.063Z,4.43
2022-11-04T14:21:08.413Z,4.33
2022-11-04T14:23:38.903Z,4.57
2022-11-04T14:26:11.434Z,4.43
2022-11-04T14:28:44.754Z,4.53
2022-11-04T14:31:36.588Z,4.40
2022-11-04T14:34:07.563Z,3.90
2022-11-04T14:36:39.372Z,4.70
2022-11-04T14:39:25.012Z,4.23
2022-11-04T14:42:02.061Z,4.53
2022-11-04T14:44:38.062Z,4.20
2022-11-04T14:47:26.812Z,5.03
2022-11-04T14:50:07.971Z,4.50
2022-11-04T14:52:48.199Z,4.47
2022-11-04T14:55:21.717Z,4.53
2022-11-04T14:57:54.248Z,5.60
2022-11-04T15:00:37.211Z,7.17
2022-11-04T15:03:57.566Z,4.60
2022-11-04T15:06:11.541Z,6.07
2022-11-04T15:08:46.759Z,6.07
2022-11-04T15:11:42.318Z,5.70
2022-11-04T15:14:22.116Z,5.50
2022-11-04T15:16:55.968Z,4.97
2022-11-04T15:19:33.264Z,5.23
2022-11-04T15:22:05.713Z,5.13
2022-11-04T15:24:36.825Z,5.90
2022-11-04T15:27:10.326Z,6.00
2022-11-04T15:29:39.456Z,7.23
2022-11-04T15:32:08.873Z,7.10
2022-11-04T15:34:39.144Z,9.37
2022-11-04T15:37:09.716Z,9.03
2022-11-04T15:39:44.851Z,10.33
2022-11-04T15:42:40.211Z,10.37
2022-11-04T15:45:38.753Z,10.00
2022-11-04T15:48:29.963Z,7.87
2022-11-04T15:51:21.296Z,7.77
2022-11-04T15:54:00.143Z,8.07
2022-11-04T15:56:36.952Z,8.07
2022-11-04T15:59:16.392Z,8.17
2022-11-04T16:01:48.278Z,10.33
2022-11-04T16:04:21.414Z,23.73
2022-11-04T16:07:24.767Z,12.47
2022-11-04T16:09:57.029Z,8.77
2022-11-04T16:12:36.481Z,6.90
2022-11-04T16:15:06.430Z,5.77
2022-11-04T16:17:35.390Z,6.13
2022-11-04T16:20:07.610Z,5.90
2022-11-04T16:23:28.118Z,5.40
2022-11-04T16:26:01.500Z,5.03
2022-11-04T16:28:37.112Z,5.77
2022-11-04T16:31:10.483Z,4.83
2022-11-04T16:33:39.670Z,5.17
2022-11-04T16:36:23.851Z,4.80
2022-11-04T16:39:00.912Z,4.50
2022-11-04T16:41:35.305Z,4.50
2022-11-04T16:44:05.979Z,4.80
2022-11-04T16:46:35.054Z,5.50
2022-11-04T16:49:03.745Z,5.37
2022-11-04T16:51:35.416Z,5.13
2022-11-04T16:54:05.518Z,5.90
2022-11-04T16:56:35.977Z,5.73
2022-11-04T16:59:04.923Z,5.50
2022-11-04T17:01:33.938Z,6.73
2022-11-04T17:04:04.446Z,6.53
2022-11-04T17:06:33.129Z,5.17
2022-11-04T17:09:01.855Z,5.63
2022-11-04T17:11:32.364Z,4.80
2022-11-04T17:14:01.434Z,5.30
2022-11-04T17:16:31.594Z,5.63
2022-11-04T17:19:01.139Z,5.00
2022-11-04T17:21:29.922Z,5.70
2022-11-04T17:23:59.892Z,6.00
2022-11-04T17:26:28.537Z,6.40
2022-11-04T17:28:59.746Z,6.50
2022-11-04T17:31:28.774Z,7.33
2022-11-04T17:33:57.401Z,7.10
2022-11-04T17:36:26.146Z,6.57
2022-11-04T17:38:54.825Z,8.83
2022-11-04T17:41:40.910Z,6.47
2022-11-04T17:44:11.039Z,8.37
2022-11-04T17:46:41.917Z,9.93
2022-11-04T17:49:15.249Z,10.27
2022-11-04T17:51:48.127Z,8.10
2022-11-04T17:54:18.807Z,7.27
2022-11-04T17:56:49.029Z,7.73
2022-11-04T17:59:19.821Z,7.13
2022-11-04T18:01:50.493Z,6.70
2022-11-04T18:04:22.400Z,7.67
2022-11-04T18:06:52.235Z,12.10
2022-11-04T18:09:21.367Z,12.17
2022-11-04T18:12:07.342Z,9.50
2022-11-04T18:14:37.658Z,8.63
2022-11-04T18:17:07.440Z,6.37
2022-11-04T18:19:37.428Z,6.30
2022-11-04T18:22:06.641Z,6.00
2022-11-04T18:24:36.077Z,6.40
2022-11-04T18:27:06.339Z,6.30
2022-11-04T18:29:41.972Z,6.97
2022-11-04T18:33:07.341Z,7.27
2022-11-04T18:35:36.814Z,7.23
2022-11-04T18:38:08.860Z,7.73
2022-11-04T18:40:38.971Z,7.50
2022-11-04T18:43:09.246Z,7.90
2022-11-04T18:45:39.652Z,7.47
2022-11-04T18:48:08.746Z,6.90
2022-11-04T18:50:37.845Z,8.80
2022-11-04T18:53:07.070Z,6.83
2022-11-04T18:55:36.678Z,7.20
2022-11-04T18:58:05.670Z,6.43
2022-11-04T19:00:37.537Z,6.80
2022-11-04T19:03:08.296Z,6.77
2022-11-04T19:05:42.321Z,7.50
2022-11-04T19:08:11.849Z,9.10
2022-11-04T19:10:57.917Z,7.77
2022-11-04T19:13:29.926Z,7.60
2022-11-04T19:16:07.296Z,8.50
2022-11-04T19:18:37.827Z,7.83
2022-11-04T19:21:09.784Z,8.97
2022-11-04T19:23:39.446Z,7.67
2022-11-04T19:26:13.546Z,7.47
2022-11-04T19:28:48.580Z,8.93
2022-11-04T19:31:20.840Z,10.70
2022-11-04T19:33:52.901Z,7.87
2022-11-04T19:36:24.415Z,7.33
2022-11-04T19:38:55.298Z,7.67
2022-11-04T19:41:42.821Z,9.33
2022-11-04T19:44:14.577Z,8.43
2022-11-04T19:47:35.311Z,8.63
2022-11-04T19:52:47.186Z,7.87
2022-11-04T19:58:25.055Z,7.97
2022-11-04T20:00:56.984Z,7.70
2022-11-04T20:03:25.763Z,7.77
2022-11-04T20:05:54.739Z,7.47
2022-11-04T20:08:26.741Z,7.93
2022-11-04T20:10:55.414Z,7.80
2022-11-04T20:13:42.494Z,7.20
2022-11-04T20:16:18.250Z,7.83
2022-11-04T20:18:51.027Z,8.63
2022-11-04T20:21:25.978Z,9.67
2022-11-04T20:23:59.368Z,9.80
2022-11-04T20:26:30.084Z,8.33
2022-11-04T20:29:00.395Z,7.77
2022-11-04T20:31:33.703Z,8.47
2022-11-04T20:34:07.995Z,8.23
2022-11-04T20:36:38.863Z,7.80
2022-11-04T20:39:13.567Z,7.80
2022-11-04T20:41:42.489Z,7.70
2022-11-04T20:44:12.492Z,7.23
2022-11-04T20:46:42.559Z,7.43
2022-11-04T20:49:12.116Z,7.90
2022-11-04T20:51:50.250Z,7.70
2022-11-04T20:54:27.357Z,8.17
2022-11-04T20:56:56.381Z,7.73
2022-11-04T20:59:25.163Z,7.63
2022-11-04T21:01:56.063Z,7.80
2022-11-04T21:04:24.902Z,7.73
2022-11-04T21:06:54.186Z,8.47
2022-11-04T21:09:23.272Z,8.27
2022-11-04T21:11:53.350Z,8.03
2022-11-04T21:14:22.171Z,7.67
2022-11-04T21:16:50.836Z,7.90
2022-11-04T21:19:21.974Z,8.43
2022-11-04T21:21:50.833Z,9.20
2022-11-04T21:24:19.539Z,14.10
2022-11-04T21:26:49.114Z,9.33
2022-11-04T21:29:21.262Z,8.40
2022-11-04T21:31:50.358Z,8.13
2022-11-04T21:34:19.154Z,8.67
2022-11-04T21:36:51.656Z,8.33
2022-11-04T21:39:20.513Z,8.97
2022-11-04T21:41:49.198Z,8.80
2022-11-04T21:44:19.316Z,9.20
2022-11-04T21:46:51.288Z,9.20
2022-11-04T21:49:21.487Z,8.50
2022-11-04T21:51:50.164Z,9.37
2022-11-04T21:54:19.113Z,10.23
2022-11-04T21:56:47.735Z,10.67
2022-11-04T21:59:18.473Z,9.40
2022-11-04T22:01:49.102Z,9.90
2022-11-04T22:04:17.813Z,9.10
2022-11-04T22:06:47.205Z,11.67
2022-11-04T22:09:15.894Z,9.63
2022-11-04T22:11:44.549Z,8.53
2022-11-04T22:14:13.985Z,8.53
2022-11-04T22:16:42.616Z,9.03
2022-11-04T22:19:15.123Z,9.00
2022-11-04T22:21:46.849Z,9.40
2022-11-04T22:24:18.508Z,9.63
2022-11-04T22:26:47.862Z,8.93
2022-11-04T22:29:16.848Z,9.27
2022-11-04T22:31:46.682Z,8.67
2022-11-04T22:34:16.813Z,8.87
2022-11-04T22:36:45.433Z,9.70
2022-11-04T22:39:16.898Z,8.20
2022-11-04T22:41:47.228Z,8.67
2022-11-04T22:44:16.249Z,8.40
2022-11-04T22:46:45.050Z,8.67
2022-11-04T22:49:14.605Z,8.50
2022-11-04T22:51:44.749Z,9.50
2022-11-04T22:54:14.600Z,9.37
2022-11-04T22:56:43.298Z,8.97
2022-11-04T22:59:12.161Z,9.57
2022-11-04T23:01:41.049Z,9.87
2022-11-04T23:04:12.235Z,9.63
2022-11-04T23:06:41.112Z,9.30
2022-11-04T23:09:13.936Z,9.93
2022-11-04T23:12:00.369Z,9.27
2022-11-04T23:14:46.171Z,8.83
2022-11-04T23:17:37.072Z,8.90
2022-11-04T23:20:10.223Z,9.17
2022-11-04T23:22:57.135Z,9.17
2022-11-04T23:25:28.197Z,9.83
2022-11-04T23:28:14.945Z,9.50
2022-11-04T23:30:46.960Z,10.13
2022-11-04T23:33:16.482Z,10.00
2022-11-04T23:36:04.932Z,10.63
2022-11-04T23:38:35.459Z,11.07
2022-11-04T23:41:25.493Z,11.60
2022-11-04T23:43:54.652Z,11.13
2022-11-04T23:46:49.233Z,11.73
2022-11-04T23:49:35.037Z,11.80
2022-11-04T23:52:22.411Z,11.93
2022-11-04T23:55:08.586Z,11.97
2022-11-04T23:57:55.973Z,11.40
